Time;durP1;ratioP1;P1;durP2;ratioP2;P2;SDS_P1;SDS_P2;PMS_P1;PMS_P2;Temp;Humidity;BMP_temperature;BMP_pressure;BME280_temperature;BME280_humidity;BME280_pressure;Samples;Min_cycle;Max_cycle;Signal;HPM_P1;HPM_P2
2023/03/22 00:00:48;;;;;;;15.57;8.90;;;;;;;;;;6122056;23;20411;-77
2023/03/22 00:03:14;;;;;;;16.55;9.15;;;;;;;;;;6122748;23;20368;-77
2023/03/22 00:05:39;;;;;;;17.55;9.60;;;;;;;;;;6148338;23;20021;-77
2023/03/22 00:08:06;;;;;;;15.48;9.18;;;;;;;;;;6121611;23;20110;-77
2023/03/22 00:10:32;;;;;;;18.42;8.93;;;;;;;;;;6096795;23;20021;-77
2023/03/22 00:12:57;;;;;;;15.02;8.77;;;;;;;;;;6122644;23;20025;-77
2023/03/22 00:15:23;;;;;;;20.50;9.18;;;;;;;;;;6072334;23;20367;-76
2023/03/22 00:17:51;;;;;;;17.50;9.43;;;;;;;;;;6122013;23;20088;-77
2023/03/22 00:20:18;;;;;;;20.15;8.65;;;;;;;;;;6147049;23;20021;-77
2023/03/22 00:22:44;;;;;;;15.85;8.20;;;;;;;;;;6099036;23;20013;-77
2023/03/22 00:25:10;;;;;;;17.80;8.65;;;;;;;;;;6148072;23;20462;-77
2023/03/22 00:27:35;;;;;;;15.82;8.43;;;;;;;;;;6122813;23;20017;-78
2023/03/22 00:30:01;;;;;;;17.15;9.82;;;;;;;;;;6098606;23;20182;-77
2023/03/22 00:32:27;;;;;;;20.58;9.30;;;;;;;;;;6120720;23;20439;-78
2023/03/22 00:34:53;;;;;;;17.58;9.32;;;;;;;;;;6120965;23;20014;-77
2023/03/22 00:37:19;;;;;;;17.13;10.20;;;;;;;;;;6145426;23;20503;-77
2023/03/22 00:39:44;;;;;;;20.52;9.23;;;;;;;;;;6096777;23;20021;-78
2023/03/22 00:42:10;;;;;;;19.52;9.98;;;;;;;;;;6121255;23;20519;-77
2023/03/22 00:44:35;;;;;;;16.45;8.68;;;;;;;;;;6147029;23;20010;-78
2023/03/22 00:47:01;;;;;;;18.20;9.57;;;;;;;;;;6095577;23;20021;-77
2023/03/22 00:49:28;;;;;;;22.10;9.63;;;;;;;;;;6120377;23;20021;-77
2023/03/22 00:51:54;;;;;;;19.00;9.35;;;;;;;;;;6095801;23;20024;-77
2023/03/22 00:54:20;;;;;;;17.35;8.98;;;;;;;;;;6120287;23;20014;-77
2023/03/22 00:56:45;;;;;;;17.52;8.95;;;;;;;;;;6120322;23;20348;-79
2023/03/22 00:59:12;;;;;;;19.63;9.38;;;;;;;;;;6121692;23;20443;-79
2023/03/22 01:01:37;;;;;;;20.23;9.80;;;;;;;;;;6095626;23;20447;-79
2023/03/22 01:04:04;;;;;;;18.27;9.68;;;;;;;;;;6120466;23;20091;-79
2023/03/22 01:06:31;;;;;;;16.17;9.25;;;;;;;;;;6146475;23;20021;-79
2023/03/22 01:08:56;;;;;;;18.92;10.18;;;;;;;;;;6096252;23;20069;-78
2023/03/22 01:11:22;;;;;;;16.50;9.38;;;;;;;;;;6119833;23;20013;-78
2023/03/22 01:13:48;;;;;;;17.88;9.52;;;;;;;;;;6119775;23;20515;-78
2023/03/22 01:16:14;;;;;;;16.67;9.68;;;;;;;;;;6130998;23;20014;-78
2023/03/22 01:18:39;;;;;;;19.17;10.40;;;;;;;;;;6120831;23;20068;-78
2023/03/22 01:21:05;;;;;;;16.42;9.55;;;;;;;;;;6095697;23;20018;-78
2023/03/22 01:23:30;;;;;;;16.83;9.10;;;;;;;;;;6096442;23;20482;-78
2023/03/22 01:25:56;;;;;;;21.90;10.25;;;;;;;;;;6118883;23;20048;-78
2023/03/22 01:28:21;;;;;;;15.05;9.32;;;;;;;;;;6146443;23;20010;-78
2023/03/22 01:30:47;;;;;;;17.65;9.27;;;;;;;;;;6145255;23;20125;-78
2023/03/22 01:33:12;;;;;;;16.17;8.65;;;;;;;;;;6096377;23;20013;-78
2023/03/22 01:35:38;;;;;;;18.05;9.80;;;;;;;;;;6120152;23;20017;-77
2023/03/22 01:38:03;;;;;;;14.90;9.10;;;;;;;;;;6145811;23;20363;-78
2023/03/22 01:40:29;;;;;;;17.52;8.85;;;;;;;;;;6119684;23;20085;-78
2023/03/22 01:42:54;;;;;;;21.25;10.07;;;;;;;;;;6095644;23;20045;-78
2023/03/22 01:45:36;;;;;;;19.50;10.23;;;;;;;;;;6145298;23;20524;-78
2023/03/22 01:48:09;;;;;;;17.67;9.60;;;;;;;;;;6146578;23;20014;-78
2023/03/22 01:50:36;;;;;;;17.23;9.35;;;;;;;;;;6119320;23;20467;-77
2023/03/22 01:53:03;;;;;;;20.08;9.55;;;;;;;;;;6146430;23;20457;-78
2023/03/22 01:55:29;;;;;;;;;;;;;;;;;;6145641;23;20171;-77
2023/03/22 01:57:54;;;;;;;18.98;8.85;;;;;;;;;;6119678;23;20330;-78
2023/03/22 02:00:20;;;;;;;16.25;9.10;;;;;;;;;;6094182;23;20041;-77
2023/03/22 02:02:48;;;;;;;18.98;10.02;;;;;;;;;;6095980;23;20019;-78
2023/03/22 02:05:14;;;;;;;17.50;9.63;;;;;;;;;;6118341;23;20508;-78
2023/03/22 02:07:41;;;;;;;16.92;9.63;;;;;;;;;;6120762;23;20044;-77
2023/03/22 02:10:18;;;;;;;18.80;10.18;;;;;;;;;;6094903;23;20021;-78
2023/03/22 02:13:14;;;;;;;18.33;9.13;;;;;;;;;;6118952;23;20020;-78
2023/03/22 02:15:45;;;;;;;17.90;8.27;;;;;;;;;;6119255;23;20467;-77
2023/03/22 02:18:26;;;;;;;18.38;9.48;;;;;;;;;;6145822;23;20021;-78
2023/03/22 02:21:10;;;;;;;15.02;8.98;;;;;;;;;;6144315;23;20076;-79
2023/03/22 02:23:51;;;;;;;18.08;9.38;;;;;;;;;;6146075;23;20028;-78
2023/03/22 02:26:31;;;;;;;18.80;9.68;;;;;;;;;;6094735;23;20013;-77
2023/03/22 02:29:21;;;;;;;17.58;9.73;;;;;;;;;;6119246;23;20018;-77
2023/03/22 02:32:23;;;;;;;19.80;10.35;;;;;;;;;;6119128;23;20400;-77
2023/03/22 02:35:21;;;;;;;18.10;8.80;;;;;;;;;;6145065;23;20014;-77
2023/03/22 02:37:57;;;;;;;20.80;9.68;;;;;;;;;;6145279;23;20077;-77
2023/03/22 02:40:57;;;;;;;19.77;10.93;;;;;;;;;;6118451;23;20033;-77
2023/03/22 02:43:45;;;;;;;17.13;8.95;;;;;;;;;;6119132;23;20021;-77
2023/03/22 02:46:51;;;;;;;19.17;8.98;;;;;;;;;;6119402;23;20013;-77
2023/03/22 02:49:21;;;;;;;17.58;8.88;;;;;;;;;;6079204;23;20074;-77
2023/03/22 02:51:54;;;;;;;16.75;8.90;;;;;;;;;;6119238;23;20018;-77
2023/03/22 02:54:47;;;;;;;19.77;9.27;;;;;;;;;;6095005;23;20508;-77
2023/03/22 02:57:18;;;;;;;16.83;9.38;;;;;;;;;;6144248;23;20013;-77
2023/03/22 02:59:44;;;;;;;15.32;9.15;;;;;;;;;;6119376;23;20621;-77
2023/03/22 03:02:12;;;;;;;16.05;9.10;;;;;;;;;;6119673;23;20013;-77
2023/03/22 03:04:44;;;;;;;19.10;9.63;;;;;;;;;;6118880;23;20017;-77
2023/03/22 03:07:13;;;;;;;13.90;8.48;;;;;;;;;;6094881;23;20383;-77
2023/03/22 03:09:40;;;;;;;16.88;9.68;;;;;;;;;;6119615;23;20049;-77
2023/03/22 03:12:12;;;;;;;17.48;9.35;;;;;;;;;;6094832;23;20013;-77
2023/03/22 03:14:37;;;;;;;18.25;8.95;;;;;;;;;;6119520;23;20017;-77
2023/03/22 03:17:39;;;;;;;16.50;9.07;;;;;;;;;;6144981;23;20013;-77
2023/03/22 03:20:16;;;;;;;18.55;9.38;;;;;;;;;;6118190;23;20452;-76
2023/03/22 03:23:14;;;;;;;15.18;8.50;;;;;;;;;;6118431;23;20471;-77
2023/03/22 03:26:02;;;;;;;16.73;9.13;;;;;;;;;;6139899;23;20017;-77
2023/03/22 03:28:37;;;;;;;17.25;9.05;;;;;;;;;;6094567;23;20088;-79
2023/03/22 03:31:11;;;;;;;15.23;8.38;;;;;;;;;;6094059;23;20017;-77
2023/03/22 03:33:41;;;;;;;18.35;9.52;;;;;;;;;;6145679;23;20768;-79
2023/03/22 03:36:09;;;;;;;17.20;8.95;;;;;;;;;;6094677;23;20721;-77
2023/03/22 03:38:37;;;;;;;16.80;8.88;;;;;;;;;;6094885;23;20017;-77
2023/03/22 03:41:03;;;;;;;;;;;;;;;;;;6119057;23;20272;-77
2023/03/22 03:43:29;;;;;;;13.45;8.23;;;;;;;;;;6145625;23;19909;-78
2023/03/22 03:45:55;;;;;;;16.92;8.70;;;;;;;;;;6144152;23;20465;-76
2023/03/22 03:48:23;;;;;;;18.88;8.95;;;;;;;;;;6118868;23;20133;-80
2023/03/22 03:50:51;;;;;;;16.00;9.05;;;;;;;;;;6118577;23;20021;-78
2023/03/22 03:53:16;;;;;;;18.13;9.93;;;;;;;;;;6119670;23;20384;-78
2023/03/22 03:55:42;;;;;;;17.80;8.82;;;;;;;;;;6093814;23;20029;-81
2023/03/22 03:58:08;;;;;;;18.92;8.82;;;;;;;;;;6119700;23;20057;-78
2023/03/22 04:00:34;;;;;;;15.35;8.43;;;;;;;;;;6144305;23;20013;-78
2023/03/22 04:03:01;;;;;;;17.13;8.95;;;;;;;;;;6119418;23;20128;-80
2023/03/22 04:05:27;;;;;;;17.27;9.07;;;;;;;;;;6118876;23;20072;-80
2023/03/22 04:07:52;;;;;;;16.73;8.93;;;;;;;;;;6095528;23;20017;-81
2023/03/22 04:10:18;;;;;;;17.83;9.48;;;;;;;;;;6095576;23;20021;-80
2023/03/22 04:12:43;;;;;;;16.60;9.35;;;;;;;;;;6121868;23;20022;-80
2023/03/22 04:15:10;;;;;;;17.42;8.48;;;;;;;;;;6147317;23;20040;-80
2023/03/22 04:17:36;;;;;;;17.92;8.52;;;;;;;;;;6096679;23;20020;-81
2023/03/22 04:20:03;;;;;;;17.77;8.73;;;;;;;;;;6146051;23;20056;-79
2023/03/22 04:22:33;;;;;;;16.33;9.03;;;;;;;;;;6095936;23;20629;-80
2023/03/22 04:25:00;;;;;;;17.10;9.13;;;;;;;;;;6121425;23;20017;-79
2023/03/22 04:27:26;;;;;;;18.50;8.97;;;;;;;;;;6119263;23;20017;-79
2023/03/22 04:29:53;;;;;;;18.10;8.48;;;;;;;;;;6146719;23;20093;-79
2023/03/22 04:32:21;;;;;;;15.27;8.35;;;;;;;;;;6096170;23;20022;-79
2023/03/22 04:34:47;;;;;;;17.45;9.57;;;;;;;;;;6121369;23;20474;-79
2023/03/22 04:37:14;;;;;;;16.10;9.13;;;;;;;;;;6120335;23;20386;-79
2023/03/22 04:39:40;;;;;;;14.65;8.02;;;;;;;;;;6147592;23;20363;-79
2023/03/22 04:42:05;;;;;;;16.42;8.98;;;;;;;;;;6120123;23;20010;-79
2023/03/22 04:44:31;;;;;;;16.30;8.38;;;;;;;;;;6095983;23;20048;-79
2023/03/22 04:46:56;;;;;;;15.10;9.10;;;;;;;;;;6119380;23;20350;-78
2023/03/22 04:49:21;;;;;;;18.25;8.65;;;;;;;;;;6120158;23;20515;-78
2023/03/22 04:51:47;;;;;;;15.75;8.48;;;;;;;;;;6145817;23;20025;-79
2023/03/22 04:54:12;;;;;;;17.05;9.40;;;;;;;;;;6120398;23;20068;-80
2023/03/22 04:56:38;;;;;;;17.48;8.45;;;;;;;;;;6120670;23;20020;-79
2023/03/22 04:59:03;;;;;;;13.90;8.07;;;;;;;;;;6080662;23;20013;-79
2023/03/22 05:01:29;;;;;;;16.23;8.68;;;;;;;;;;6119844;23;20072;-79
2023/03/22 05:03:54;;;;;;;16.77;8.55;;;;;;;;;;6145996;23;20014;-79
2023/03/22 05:06:20;;;;;;;15.15;8.40;;;;;;;;;;6120431;23;20017;-79
2023/03/22 05:08:45;;;;;;;16.00;8.52;;;;;;;;;;6121138;23;20052;-80
2023/03/22 05:11:13;;;;;;;17.25;8.65;;;;;;;;;;6120193;23;20010;-79
2023/03/22 05:13:39;;;;;;;14.55;7.93;;;;;;;;;;6146312;23;20502;-79
2023/03/22 05:16:05;;;;;;;15.70;7.80;;;;;;;;;;6095419;23;20013;-79
2023/03/22 05:18:32;;;;;;;15.27;8.77;;;;;;;;;;6095826;23;20121;-79
2023/03/22 05:20:59;;;;;;;15.10;8.48;;;;;;;;;;6119604;23;20039;-79
2023/03/22 05:23:25;;;;;;;13.80;7.90;;;;;;;;;;6120945;23;20451;-79
2023/03/22 05:25:51;;;;;;;16.33;7.90;;;;;;;;;;6119439;23;20029;-79
2023/03/22 05:28:20;;;;;;;18.83;9.00;;;;;;;;;;6120734;23;20148;-79
2023/03/22 05:30:46;;;;;;;17.27;8.25;;;;;;;;;;6094672;23;20075;-80
2023/03/22 05:33:11;;;;;;;15.15;8.27;;;;;;;;;;6120783;23;20021;-79
2023/03/22 05:35:38;;;;;;;15.38;8.48;;;;;;;;;;6145176;23;20017;-79
2023/03/22 05:38:05;;;;;;;17.02;8.75;;;;;;;;;;6119380;23;20013;-78
2023/03/22 05:40:30;;;;;;;14.13;8.15;;;;;;;;;;6105467;23;22146;-78
2023/03/22 05:42:55;;;;;;;17.65;8.50;;;;;;;;;;6096219;23;20009;-79
2023/03/22 05:45:21;;;;;;;15.55;8.20;;;;;;;;;;6093888;23;20021;-79
2023/03/22 05:47:47;;;;;;;17.23;9.02;;;;;;;;;;6095501;23;20515;-79
2023/03/22 05:50:15;;;;;;;17.80;9.05;;;;;;;;;;6119469;23;20392;-79
2023/03/22 05:52:41;;;;;;;17.83;8.35;;;;;;;;;;6120701;23;20014;-79
2023/03/22 05:55:07;;;;;;;17.63;8.88;;;;;;;;;;6104286;23;20026;-79
2023/03/22 05:57:32;;;;;;;14.82;7.80;;;;;;;;;;6145456;23;20014;-80
2023/03/22 05:59:58;;;;;;;17.08;8.93;;;;;;;;;;6120234;23;20021;-80
2023/03/22 06:02:24;;;;;;;15.52;8.25;;;;;;;;;;6119733;23;20014;-80
2023/03/22 06:04:56;;;;;;;15.35;8.43;;;;;;;;;;6119905;23;20033;-80
2023/03/22 06:07:21;;;;;;;16.83;7.97;;;;;;;;;;6119057;23;20013;-80
2023/03/22 06:09:48;;;;;;;16.67;8.88;;;;;;;;;;6145864;23;20024;-80
2023/03/22 06:12:14;;;;;;;18.95;8.75;;;;;;;;;;6145739;23;20033;-80
2023/03/22 06:14:39;;;;;;;16.25;8.38;;;;;;;;;;6119871;23;20462;-80
2023/03/22 06:17:05;;;;;;;17.70;9.15;;;;;;;;;;6144503;23;20084;-80
2023/03/22 06:19:30;;;;;;;16.88;9.18;;;;;;;;;;6145697;23;20021;-79
2023/03/22 06:21:56;;;;;;;17.08;8.98;;;;;;;;;;6145215;23;20485;-80
2023/03/22 06:24:21;;;;;;;18.20;8.82;;;;;;;;;;6119253;23;20013;-79
2023/03/22 06:26:47;;;;;;;16.25;8.65;;;;;;;;;;6119611;23;20518;-79
2023/03/22 06:29:12;;;;;;;15.18;8.20;;;;;;;;;;6094941;23;20093;-80
2023/03/22 06:31:38;;;;;;;15.15;8.05;;;;;;;;;;6095451;23;20475;-79
2023/03/22 06:34:04;;;;;;;16.67;8.52;;;;;;;;;;6119366;23;20450;-79
2023/03/22 06:36:30;;;;;;;15.98;8.70;;;;;;;;;;6094024;23;20108;-80
2023/03/22 06:38:57;;;;;;;16.88;8.60;;;;;;;;;;6095096;23;20017;-80
2023/03/22 06:41:22;;;;;;;17.73;9.18;;;;;;;;;;6118888;23;20028;-77
2023/03/22 06:43:48;;;;;;;15.90;8.75;;;;;;;;;;6119661;23;20036;-77
2023/03/22 06:46:13;;;;;;;15.65;8.45;;;;;;;;;;6118324;23;20042;-77
2023/03/22 06:48:39;;;;;;;14.98;8.20;;;;;;;;;;6119695;23;20020;-78
2023/03/22 06:51:05;;;;;;;15.43;8.18;;;;;;;;;;6118505;23;20018;-77
2023/03/22 06:53:30;;;;;;;14.77;8.10;;;;;;;;;;6090386;23;20009;-78
2023/03/22 06:55:56;;;;;;;15.88;8.40;;;;;;;;;;6144406;23;20020;-78
2023/03/22 06:58:21;;;;;;;15.02;8.60;;;;;;;;;;6119594;23;20014;-77
2023/03/22 07:00:46;;;;;;;16.15;8.82;;;;;;;;;;6144239;23;20027;-79
2023/03/22 07:03:12;;;;;;;16.88;8.88;;;;;;;;;;6146065;23;20021;-78
2023/03/22 07:05:37;;;;;;;14.15;8.27;;;;;;;;;;6143286;23;20107;-78
2023/03/22 07:08:02;;;;;;;16.70;8.07;;;;;;;;;;6145219;23;20052;-78
2023/03/22 07:10:28;;;;;;;15.73;8.77;;;;;;;;;;6118442;23;20018;-77
2023/03/22 07:12:54;;;;;;;14.45;8.35;;;;;;;;;;6119549;23;20017;-78
2023/03/22 07:15:23;;;;;;;18.02;8.93;;;;;;;;;;6144190;23;20021;-78
2023/03/22 07:17:50;;;;;;;15.15;8.35;;;;;;;;;;6102465;23;20342;-78
2023/03/22 07:20:17;;;;;;;14.40;8.45;;;;;;;;;;6118488;23;20350;-78
2023/03/22 07:22:42;;;;;;;14.23;8.35;;;;;;;;;;6119615;23;20477;-78
2023/03/22 07:25:08;;;;;;;14.40;7.85;;;;;;;;;;6119401;23;20017;-78
2023/03/22 07:27:34;;;;;;;16.23;8.40;;;;;;;;;;6093678;23;20023;-78
2023/03/22 07:29:59;;;;;;;16.05;7.82;;;;;;;;;;6118768;23;20452;-77
2023/03/22 07:32:24;;;;;;;14.70;8.23;;;;;;;;;;6137259;23;20100;-77
2023/03/22 07:34:50;;;;;;;14.77;8.00;;;;;;;;;;6093989;23;20021;-78
2023/03/22 07:37:15;;;;;;;14.73;7.75;;;;;;;;;;6093538;23;20023;-78
2023/03/22 07:39:41;;;;;;;13.93;7.70;;;;;;;;;;6118960;23;20021;-78
2023/03/22 07:42:06;;;;;;;13.07;7.65;;;;;;;;;;6118755;23;20025;-81
2023/03/22 07:44:31;;;;;;;12.55;7.30;;;;;;;;;;6147352;23;22391;-81
2023/03/22 07:46:57;;;;;;;13.80;7.90;;;;;;;;;;6146650;23;20025;-82
2023/03/22 07:49:23;;;;;;;13.52;6.88;;;;;;;;;;6146445;23;20017;-81
2023/03/22 07:51:48;;;;;;;11.88;6.47;;;;;;;;;;6120040;23;20018;-81
2023/03/22 07:54:13;;;;;;;13.68;7.43;;;;;;;;;;6146807;23;20019;-81
2023/03/22 07:56:39;;;;;;;14.00;6.63;;;;;;;;;;6120852;23;20087;-81
2023/03/22 07:59:05;;;;;;;15.48;7.43;;;;;;;;;;6095750;23;20017;-81
2023/03/22 08:01:30;;;;;;;14.27;7.80;;;;;;;;;;6146135;23;20024;-82
2023/03/22 08:03:55;;;;;;;13.85;7.28;;;;;;;;;;6146282;23;20017;-82
2023/03/22 08:06:21;;;;;;;11.80;6.38;;;;;;;;;;6146585;23;20037;-81
2023/03/22 08:08:46;;;;;;;13.75;6.28;;;;;;;;;;6121120;23;20442;-81
2023/03/22 08:11:12;;;;;;;13.20;7.03;;;;;;;;;;6095935;23;20072;-82
2023/03/22 08:13:38;;;;;;;13.43;7.55;;;;;;;;;;6147429;23;20017;-77
2023/03/22 08:16:04;;;;;;;13.20;6.30;;;;;;;;;;6119550;23;20414;-76
2023/03/22 08:18:30;;;;;;;13.95;7.15;;;;;;;;;;6096455;23;20355;-75
2023/03/22 08:20:57;;;;;;;15.20;7.50;;;;;;;;;;6120246;23;20021;-78
2023/03/22 08:23:22;;;;;;;11.33;6.33;;;;;;;;;;6096510;23;20153;-76
2023/03/22 08:25:48;;;;;;;12.73;6.70;;;;;;;;;;6120055;23;20064;-76
2023/03/22 08:28:14;;;;;;;12.20;6.18;;;;;;;;;;6120029;23;20521;-76
2023/03/22 08:30:41;;;;;;;12.43;6.78;;;;;;;;;;6120351;23;20028;-75
2023/03/22 08:33:06;;;;;;;10.65;6.57;;;;;;;;;;6096090;23;20485;-76
2023/03/22 08:35:32;;;;;;;17.55;10.75;;;;;;;;;;6095030;23;21428;-77
2023/03/22 08:37:57;;;;;;;54.08;31.10;;;;;;;;;;6120751;23;20026;-76
2023/03/22 08:40:23;;;;;;;17.00;8.65;;;;;;;;;;6145572;23;20026;-76
2023/03/22 08:42:49;;;;;;;29.83;16.70;;;;;;;;;;6147290;23;20020;-76
2023/03/22 08:45:15;;;;;;;12.65;6.97;;;;;;;;;;6119924;23;20084;-75
2023/03/22 08:47:41;;;;;;;9.98;5.60;;;;;;;;;;6097085;23;20013;-78
2023/03/22 08:50:07;;;;;;;17.27;7.97;;;;;;;;;;6145907;23;20025;-78
2023/03/22 08:52:33;;;;;;;22.98;9.65;;;;;;;;;;6095905;23;20021;-78
2023/03/22 08:55:02;;;;;;;9.82;5.95;;;;;;;;;;6094825;23;20029;-78
2023/03/22 08:57:28;;;;;;;10.35;5.88;;;;;;;;;;6095048;23;20068;-78
2023/03/22 08:59:56;;;;;;;9.15;5.40;;;;;;;;;;6146192;23;20010;-78
2023/03/22 09:02:25;;;;;;;10.32;5.90;;;;;;;;;;6119212;23;20092;-78
2023/03/22 09:04:50;;;;;;;9.82;5.55;;;;;;;;;;6120470;23;20706;-78
2023/03/22 09:07:23;;;;;;;12.38;6.47;;;;;;;;;;6118566;23;20005;-78
2023/03/22 09:09:49;;;;;;;8.27;5.28;;;;;;;;;;6096649;23;20033;-78
2023/03/22 09:12:15;;;;;;;14.20;6.65;;;;;;;;;;6094817;23;20013;-76
2023/03/22 09:14:40;;;;;;;9.85;5.70;;;;;;;;;;6120444;23;20021;-76
2023/03/22 09:17:06;;;;;;;9.77;5.90;;;;;;;;;;6145339;23;20024;-76
2023/03/22 09:19:31;;;;;;;8.40;4.70;;;;;;;;;;6120356;23;20040;-76
2023/03/22 09:21:56;;;;;;;8.38;4.88;;;;;;;;;;6119277;23;20093;-77
2023/03/22 09:24:22;;;;;;;10.40;6.10;;;;;;;;;;6119921;23;20017;-77
2023/03/22 09:26:48;;;;;;;8.57;4.78;;;;;;;;;;6119482;23;20029;-77
2023/03/22 09:29:14;;;;;;;11.73;4.90;;;;;;;;;;6095633;23;20022;-77
2023/03/22 09:31:39;;;;;;;16.50;8.40;;;;;;;;;;6095292;23;20084;-77
2023/03/22 09:34:05;;;;;;;5.70;3.85;;;;;;;;;;6145971;23;20500;-78
2023/03/22 09:36:31;;;;;;;10.43;7.28;;;;;;;;;;6145831;23;20013;-77
2023/03/22 09:38:58;;;;;;;15.27;10.15;;;;;;;;;;6119637;23;20456;-77
2023/03/22 09:41:28;;;;;;;7.13;4.53;;;;;;;;;;6145781;23;20068;-77
2023/03/22 09:43:57;;;;;;;8.13;5.03;;;;;;;;;;6119438;23;20021;-77
2023/03/22 09:46:36;;;;;;;9.68;4.82;;;;;;;;;;6119405;23;20048;-77
2023/03/22 09:49:05;;;;;;;8.73;4.35;;;;;;;;;;6094857;23;20092;-76
2023/03/22 09:51:42;;;;;;;8.82;4.90;;;;;;;;;;6094927;23;20076;-77
2023/03/22 09:54:20;;;;;;;8.02;5.20;;;;;;;;;;6146286;23;20014;-77
2023/03/22 09:57:01;;;;;;;7.82;4.35;;;;;;;;;;6119702;23;20006;-76
2023/03/22 09:59:38;;;;;;;8.32;4.40;;;;;;;;;;6120259;23;20017;-76
2023/03/22 10:02:41;;;;;;;7.43;4.60;;;;;;;;;;6095123;23;20076;-76
2023/03/22 10:05:17;;;;;;;8.00;4.65;;;;;;;;;;6078678;23;20189;-77
2023/03/22 10:07:52;;;;;;;8.00;4.65;;;;;;;;;;6119875;23;20396;-78
2023/03/22 10:10:20;;;;;;;8.43;4.60;;;;;;;;;;6144522;23;20332;-77
2023/03/22 10:13:06;;;;;;;8.90;4.68;;;;;;;;;;6119487;23;20017;-77
2023/03/22 10:15:36;;;;;;;7.32;4.50;;;;;;;;;;6118973;23;20022;-77
2023/03/22 10:18:06;;;;;;;6.80;4.15;;;;;;;;;;6145992;23;20368;-77
2023/03/22 10:20:47;;;;;;;7.22;4.22;;;;;;;;;;6119205;23;20021;-77
2023/03/22 10:23:15;;;;;;;9.00;4.07;;;;;;;;;;6145245;23;20021;-77
2023/03/22 10:25:42;;;;;;;7.22;4.00;;;;;;;;;;6118787;23;20502;-77
2023/03/22 10:28:15;;;;;;;8.48;4.20;;;;;;;;;;6095843;23;20017;-77
2023/03/22 10:30:41;;;;;;;8.80;4.35;;;;;;;;;;6144804;23;20149;-77
2023/03/22 10:33:13;;;;;;;9.02;3.97;;;;;;;;;;6146119;23;20452;-77
2023/03/22 10:35:40;;;;;;;7.47;4.00;;;;;;;;;;6118431;23;20013;-77
2023/03/22 10:38:09;;;;;;;7.47;4.10;;;;;;;;;;6120180;23;20399;-78
2023/03/22 10:40:35;;;;;;;7.30;4.07;;;;;;;;;;6118341;23;20049;-77
2023/03/22 10:43:29;;;;;;;8.25;4.25;;;;;;;;;;6095128;23;20060;-77
2023/03/22 10:45:55;;;;;;;6.90;3.42;;;;;;;;;;6090005;23;20329;-77
2023/03/22 10:48:50;;;;;;;6.75;3.90;;;;;;;;;;6094782;23;20009;-77
2023/03/22 10:51:45;;;;;;;6.90;3.97;;;;;;;;;;6140355;23;20021;-77
2023/03/22 10:54:15;;;;;;;6.60;3.58;;;;;;;;;;6119861;23;20022;-77
2023/03/22 10:56:40;;;;;;;5.50;3.20;;;;;;;;;;6118897;23;20470;-77
2023/03/22 10:59:06;;;;;;;5.57;3.53;;;;;;;;;;6145315;23;20013;-77
2023/03/22 11:01:35;;;;;;;5.63;3.13;;;;;;;;;;6118827;23;20618;-77
2023/03/22 11:04:09;;;;;;;7.13;3.67;;;;;;;;;;6119507;23;20044;-77
2023/03/22 11:06:39;;;;;;;6.57;3.65;;;;;;;;;;6117933;23;20013;-78
2023/03/22 11:09:15;;;;;;;6.53;3.45;;;;;;;;;;6118918;23;20072;-77
2023/03/22 11:11:59;;;;;;;8.65;3.97;;;;;;;;;;6118374;23;20033;-77
2023/03/22 11:14:29;;;;;;;7.18;3.72;;;;;;;;;;6144597;23;20083;-77
2023/03/22 11:16:57;;;;;;;7.20;2.97;;;;;;;;;;6118735;23;20029;-78
2023/03/22 11:19:26;;;;;;;5.28;2.80;;;;;;;;;;6119306;23;20017;-77
2023/03/22 11:21:53;;;;;;;5.25;2.60;;;;;;;;;;6118173;23;20097;-77
2023/03/22 11:24:20;;;;;;;6.50;2.88;;;;;;;;;;6095525;23;20088;-78
2023/03/22 11:27:01;;;;;;;5.18;2.25;;;;;;;;;;6144750;23;20013;-77
2023/03/22 11:29:26;;;;;;;4.70;2.42;;;;;;;;;;6118863;23;20356;-77
2023/03/22 11:31:56;;;;;;;4.68;2.30;;;;;;;;;;6118366;23;20017;-77
2023/03/22 11:34:25;;;;;;;5.97;2.40;;;;;;;;;;6119038;23;20017;-77
2023/03/22 11:36:55;;;;;;;5.85;2.40;;;;;;;;;;6144822;23;20466;-77
2023/03/22 11:39:27;;;;;;;5.25;2.72;;;;;;;;;;6119289;23;20079;-77
2023/03/22 11:41:57;;;;;;;5.78;2.85;;;;;;;;;;6117418;23;20005;-77
2023/03/22 11:44:25;;;;;;;4.97;2.45;;;;;;;;;;6094671;23;20028;-77
2023/03/22 11:46:54;;;;;;;4.50;2.50;;;;;;;;;;6119172;23;20014;-77
2023/03/22 11:49:20;;;;;;;4.57;2.20;;;;;;;;;;6117928;23;20425;-77
2023/03/22 11:51:45;;;;;;;6.10;2.67;;;;;;;;;;6118537;23;20460;-76
2023/03/22 11:54:18;;;;;;;4.28;2.20;;;;;;;;;;6094859;23;20020;-78
2023/03/22 11:56:46;;;;;;;5.82;2.30;;;;;;;;;;6144533;23;20021;-77
2023/03/22 11:59:26;;;;;;;4.72;2.20;;;;;;;;;;6119165;23;20020;-77
2023/03/22 12:02:27;;;;;;;5.45;2.40;;;;;;;;;;6094062;23;20463;-82
2023/03/22 12:05:00;;;;;;;4.78;2.47;;;;;;;;;;6144084;23;20021;-79
2023/03/22 12:07:27;;;;;;;4.47;2.28;;;;;;;;;;6117590;23;20017;-80
2023/03/22 12:10:02;;;;;;;3.85;2.38;;;;;;;;;;6094625;23;20025;-81
2023/03/22 12:12:41;;;;;;;5.15;2.38;;;;;;;;;;6129263;23;20018;-81
2023/03/22 12:15:11;;;;;;;4.68;2.20;;;;;;;;;;6118666;23;20064;-77
2023/03/22 12:17:44;;;;;;;5.88;2.50;;;;;;;;;;6144264;23;20018;-78
2023/03/22 12:20:25;;;;;;;4.95;2.67;;;;;;;;;;6119565;23;20510;-78
2023/03/22 12:22:53;;;;;;;5.18;2.80;;;;;;;;;;6144461;23;20010;-79
2023/03/22 12:25:21;;;;;;;4.75;2.30;;;;;;;;;;6117894;23;20018;-78
2023/03/22 12:27:53;;;;;;;5.95;2.50;;;;;;;;;;6118620;23;20021;-80
2023/03/22 12:30:24;;;;;;;4.93;2.05;;;;;;;;;;6095642;23;20017;-79
2023/03/22 12:33:00;;;;;;;5.05;2.75;;;;;;;;;;6120604;23;20021;-79
2023/03/22 12:35:29;;;;;;;6.07;2.92;;;;;;;;;;6119895;23;20013;-79
2023/03/22 12:37:58;;;;;;;6.50;2.65;;;;;;;;;;6147404;23;20025;-78
2023/03/22 12:40:26;;;;;;;5.85;1.85;;;;;;;;;;6117420;23;20056;-80
2023/03/22 12:42:57;;;;;;;5.22;1.90;;;;;;;;;;6095896;23;20009;-78
2023/03/22 12:45:26;;;;;;;4.03;1.67;;;;;;;;;;6145582;23;20029;-80
2023/03/22 12:47:57;;;;;;;4.55;1.92;;;;;;;;;;6146058;23;20028;-78
2023/03/22 12:50:28;;;;;;;3.92;1.70;;;;;;;;;;6144969;23;20367;-80
2023/03/22 12:52:53;;;;;;;4.47;1.75;;;;;;;;;;6095985;23;20032;-79
2023/03/22 12:55:25;;;;;;;4.65;1.75;;;;;;;;;;6119770;23;20017;-80
2023/03/22 12:57:51;;;;;;;4.20;1.70;;;;;;;;;;6095917;23;20017;-79
2023/03/22 13:00:19;;;;;;;3.95;1.50;;;;;;;;;;6119913;23;20021;-79
2023/03/22 13:02:48;;;;;;;3.28;1.30;;;;;;;;;;6120267;23;20041;-79
2023/03/22 13:05:16;;;;;;;3.20;1.20;;;;;;;;;;6118733;23;20459;-79
2023/03/22 13:07:45;;;;;;;;;;;;;;;;;;6120211;23;20447;-80
2023/03/22 13:10:32;;;;;;;5.47;1.33;;;;;;;;;;6119591;23;19916;-79
2023/03/22 13:13:14;;;;;;;;;;;;;;;;;;6120217;23;20522;-79
2023/03/22 13:15:58;;;;;;;3.63;1.30;;;;;;;;;;6144093;23;19912;-78
2023/03/22 13:18:39;;;;;;;3.67;1.30;;;;;;;;;;6120428;23;20630;-78
2023/03/22 13:21:18;;;;;;;6.47;1.60;;;;;;;;;;6145543;23;20025;-78
2023/03/22 13:24:06;;;;;;;3.28;1.13;;;;;;;;;;6095967;23;20017;-79
2023/03/22 13:26:33;;;;;;;;;;;;;;;;;;6121156;23;20068;-79
2023/03/22 13:29:02;;;;;;;3.05;1.30;;;;;;;;;;6119160;23;19908;-79
2023/03/22 13:31:36;;;;;;;3.08;1.40;;;;;;;;;;6119931;23;20017;-80
2023/03/22 13:34:03;;;;;;;3.17;1.20;;;;;;;;;;6119943;23;20017;-79
2023/03/22 13:36:30;;;;;;;3.90;1.20;;;;;;;;;;6119683;23;20076;-78
2023/03/22 13:38:58;;;;;;;3.72;1.60;;;;;;;;;;6119963;23;20256;-78
2023/03/22 13:41:27;;;;;;;2.70;1.00;;;;;;;;;;6094675;23;20013;-79
2023/03/22 13:43:55;;;;;;;3.22;1.20;;;;;;;;;;6119675;23;20013;-78
2023/03/22 13:46:20;;;;;;;2.40;1.15;;;;;;;;;;6119182;23;20447;-77
2023/03/22 13:48:46;;;;;;;4.70;1.38;;;;;;;;;;6146066;23;20018;-79
2023/03/22 13:51:17;;;;;;;3.13;1.35;;;;;;;;;;6145216;23;20492;-77
2023/03/22 13:54:04;;;;;;;4.28;1.40;;;;;;;;;;6146547;23;20530;-78
2023/03/22 13:56:32;;;;;;;3.63;1.50;;;;;;;;;;6144298;23;20042;-78
2023/03/22 13:58:58;;;;;;;2.70;1.30;;;;;;;;;;6119566;23;20040;-77
2023/03/22 14:01:33;;;;;;;2.20;1.05;;;;;;;;;;6118384;23;20013;-78
2023/03/22 14:04:02;;;;;;;2.47;1.17;;;;;;;;;;6119564;23;20391;-78
2023/03/22 14:06:33;;;;;;;4.05;1.33;;;;;;;;;;6118984;23;20447;-78
2023/03/22 14:09:10;;;;;;;4.25;1.30;;;;;;;;;;6094827;23;20033;-80
2023/03/22 14:11:39;;;;;;;3.67;1.40;;;;;;;;;;6118024;23;20029;-80
2023/03/22 14:14:17;;;;;;;5.05;1.20;;;;;;;;;;6145911;23;20450;-81
2023/03/22 14:16:49;;;;;;;2.75;1.10;;;;;;;;;;6119963;23;20339;-80
2023/03/22 14:19:23;;;;;;;4.53;1.00;;;;;;;;;;6119255;23;20443;-80
2023/03/22 14:21:55;;;;;;;2.67;1.20;;;;;;;;;;6093849;23;20013;-80
2023/03/22 14:24:22;;;;;;;4.88;1.20;;;;;;;;;;6119918;23;20037;-80
2023/03/22 14:26:53;;;;;;;4.05;1.00;;;;;;;;;;6118810;23;20506;-79
2023/03/22 14:29:21;;;;;;;4.32;1.35;;;;;;;;;;6119423;23;20181;-80
2023/03/22 14:32:01;;;;;;;3.05;1.17;;;;;;;;;;6118898;23;20332;-80
2023/03/22 14:34:35;;;;;;;4.68;2.28;;;;;;;;;;6118441;23;20029;-80
2023/03/22 14:37:04;;;;;;;3.35;1.13;;;;;;;;;;6118134;23;20017;-80
2023/03/22 14:39:38;;;;;;;3.53;1.38;;;;;;;;;;6118806;23;20017;-80
2023/03/22 14:42:15;;;;;;;2.67;0.90;;;;;;;;;;6144495;23;20075;-81
2023/03/22 14:44:46;;;;;;;2.00;0.88;;;;;;;;;;6119095;23;20455;-80
2023/03/22 14:47:16;;;;;;;4.13;1.15;;;;;;;;;;6145247;23;20021;-81
2023/03/22 14:49:44;;;;;;;2.45;1.00;;;;;;;;;;6143928;23;20019;-80